Flight Track Log - Related Links

Times and Time Zones

All times are in EDT time to prevent confusion due to time zone crossing. See the SWA1712 flight status page for this flight to view local times or setup timezone preferences in your user account.

Time Position Orientation Groundspeed Altitude Reporting Facility
EDT Latitude Longitude Course Direction KTS MPH feet Rate Location/Type
Sat 10:16:22 PM 37.3500 -121.9167 130° Southeast 141 162 1,100  Level Northern Cal TRACON
Sat 10:17:28 PM 37.3167 -121.8667 130° Southeast 228 262 3,200 2,151 Climbing Northern Cal TRACON
Sat 10:18:08 PM 37.2825 -121.8219 134° Southeast 234 269 4,900 2,520 Climbing Oakland Center
Sat 10:19:08 PM 37.2422 -121.7492 125° Southeast 256 295 7,400 2,826 Climbing Oakland Center
Sat 10:20:09 PM 37.1942 -121.6625 125° Southeast 289 333 10,600 2,902 Climbing Oakland Center
Sat 10:21:10 PM 37.1392 -121.5753 128° Southeast 311 358 13,300 2,656 Climbing Oakland Center
Sat 10:22:11 PM 37.0639 -121.4897 138° Southeast 346 398 16,000 2,826 Climbing Oakland Center
Sat 10:23:11 PM 36.9858 -121.4025 138° Southeast 369 425 19,000 2,479 Climbing Oakland Center
Sat 10:24:12 PM 36.9017 -121.3139 140° Southeast 389 448 21,000 2,033 Climbing Oakland Center
Sat 10:25:12 PM 36.8175 -121.2214 139° Southeast 411 473 23,100 2,033 Climbing Oakland Center
Sat 10:26:13 PM 36.7267 -121.1242 139° Southeast 425 489 25,100 2,016 Climbing Oakland Center
Sat 10:27:14 PM 36.6328 -121.0225 139° Southeast 440 506 27,200 2,262 Climbing Oakland Center
Sat 10:28:15 PM 36.5328 -120.8775 131° Southeast 454 522 29,700 2,479 Climbing Oakland Center
Sat 10:29:15 PM 36.4722 -120.7339 118° Southeast 465 535 32,200 1,785 Climbing Oakland Center
Sat 10:30:16 PM 36.4081 -120.5922 119° Southeast 467 537 33,300 1,623 Climbing Oakland Center
Sat 10:31:17 PM 36.3433 -120.4428 118° Southeast 486 559 35,500 1,636 Climbing Oakland Center
Sat 10:32:17 PM 36.2797 -120.2992 119° Southeast 477 549 36,600 694 Climbing Oakland Center
Sat 10:33:18 PM 36.2144 -120.1542 119° Southeast 481 554 36,900 197 Climbing Oakland Center
Sat 10:34:19 PM 36.1508 -120.0133 119° Southeast 469 540 37,000 50 Climbing Oakland Center
Sat 10:35:19 PM 36.0883 -119.8747 119° Southeast 461 531 37,000  Level Oakland Center
Sat 10:36:20 PM 36.0256 -119.7383 120° Southeast 457 526 37,000  Level Oakland Center
Sat 10:37:21 PM 35.9647 -119.6042 119° Southeast 447 514 37,000  Level Oakland Center
Sat 10:38:21 PM 35.9033 -119.4658 119° Southeast 457 526 37,000  Level Oakland Center
Sat 10:39:22 PM 35.8400 -119.3289 120° Southeast 457 526 37,000  Level Oakland Center
Sat 10:40:23 PM 35.7761 -119.1900 120° Southeast 461 531 37,000  Level Oakland Center
Sat 10:41:24 PM 35.7111 -119.0511 120° Southeast 466 536 37,000  Level Oakland Center
Sat 10:42:24 PM 35.6467 -118.9108 119° Southeast 468 539 37,000  Level Oakland Center
Sat 10:43:25 PM 35.5806 -118.7714 120° Southeast 471 542 37,000  Level Oakland Center
Sat 10:44:26 PM 35.5153 -118.6292 119° Southeast 476 548 37,000  Level Oakland Center
Sat 10:45:26 PM 35.4489 -118.4878 120° Southeast 477 549 37,000  Level Oakland Center
Sat 10:46:27 PM 35.3819 -118.3472 120° Southeast 478 550 37,000  Level Oakland Center
Sat 10:47:28 PM 35.3158 -118.2078 120° Southeast 476 548 37,000  Level Oakland Center
Sat 10:48:36 PM 35.2367 -118.0406 120° Southeast 473 544 37,000  Level Los Angeles Center
Sat 10:49:37 PM 35.1711 -117.9042 120° Southeast 470 541 37,000  Level Los Angeles Center
Sat 10:50:38 PM 35.1050 -117.7675 121° Southeast 469 540 37,000  Level Los Angeles Center
Sat 10:51:39 PM 35.0392 -117.6283 120° Southeast 468 539 37,000  Level Los Angeles Center
Sat 10:52:41 PM 34.9628 -117.4742 121° Southeast 483 556 37,000  Level Los Angeles Center
Sat 10:53:42 PM 34.8969 -117.3381 120° Southeast 474 545 37,000  Level Los Angeles Center
Sat 10:54:43 PM 34.8289 -117.2008 121° Southeast 475 547 37,000  Level Los Angeles Center
Sat 10:55:44 PM 34.7642 -117.0644 120° Southeast 469 540 37,000  Level Los Angeles Center
Sat 10:56:45 PM 34.6964 -116.9278 121° Southeast 472 543 37,000  Level Los Angeles Center
Sat 10:57:47 PM 34.6303 -116.7914 120° Southeast 469 540 37,000  Level Los Angeles Center
Sat 10:58:48 PM 34.5619 -116.6561 121° Southeast 471 542 37,000  Level Los Angeles Center
Sat 10:59:49 PM 34.4814 -116.4931 121° Southeast 471 542 37,000  Level Los Angeles Center
Sat 11:00:50 PM 34.4133 -116.3572 121° Southeast 471 542 37,000  Level Los Angeles Center
Sat 11:01:52 PM 34.3467 -116.2208 121° Southeast 473 544 37,000  Level Los Angeles Center
Sat 11:03:05 PM 34.2778 -116.0861 122° Southeast 472 543 37,000  Level Los Angeles Center
Sat 11:04:06 PM 34.1989 -115.9214 120° Southeast 472 543 37,000  Level Los Angeles Center
Sat 11:05:08 PM 34.1478 -115.7833 114° Southeast 466 536 37,000  Level Los Angeles Center
Sat 11:06:09 PM 34.0897 -115.6375 116° Southeast 474 545 37,000  Level Los Angeles Center
Sat 11:07:10 PM 34.0322 -115.4939 116° Southeast 474 545 37,000  Level Los Angeles Center
Sat 11:08:11 PM 33.9633 -115.3228 116° Southeast 473 544 37,000  Level Los Angeles Center
Sat 11:09:24 PM 33.9064 -115.1792 116° Southeast 474 545 37,000  Level Los Angeles Center
Sat 11:10:26 PM 33.8378 -115.0058 115° Southeast 480 552 37,000  Level Los Angeles Center
Sat 11:11:27 PM 33.7786 -114.8633 117° Southeast 479 551 37,000  Level Los Angeles Center
Sat 11:12:28 PM 33.7189 -114.7203 117° Southeast 478 550 37,000 -976 Level Los Angeles Center
Sat 11:13:30 PM 33.6625 -114.5756 115° Southeast 480 552 35,000 -2,444 Descending Los Angeles Center
Sat 11:14:43 PM 33.6042 -114.4289 115° Southeast 489 563 31,500 -3,091 Descending Los Angeles Center
Sat 11:15:09 PM 33.5739 -114.3461 114° Southeast 490 564 29,900 -2,966 Descending Albuquerque Center
Sat 11:16:10 PM 33.5167 -114.2078 116° Southeast 470 541 27,200 -2,430 Descending Albuquerque Center
Sat 11:17:10 PM 33.4564 -114.0483 114° Southeast 443 510 25,000 -1,091 Descending Albuquerque Center
Sat 11:18:11 PM 33.4289 -113.9103 103° East 428 493 25,000  Level Albuquerque Center
Sat 11:19:12 PM 33.3997 -113.7650 103° East 444 511 25,000  Level Albuquerque Center
Sat 11:20:12 PM 33.3697 -113.6153 103° East 459 528 25,000 -1,240 Level Albuquerque Center
Sat 11:21:13 PM 33.3406 -113.4719 104° East 450 518 22,500 -1,820 Descending Albuquerque Center
Sat 11:22:14 PM 33.3117 -113.3317 104° East 438 504 21,300 -1,721 Descending Albuquerque Center
Sat 11:23:15 PM 33.2844 -113.2025 104° East 413 475 19,000 -2,132 Descending Albuquerque Center
Sat 11:24:15 PM 33.2742 -113.0739 95° East 394 453 17,000 -992 Descending Albuquerque Center
Sat 11:25:16 PM 33.2772 -112.9514 88° East 373 429 17,000 -492 Level Albuquerque Center
Sat 11:26:17 PM 33.2806 -112.8297 88° East 367 422 16,000 -496 Descending Albuquerque Center
Sat 11:27:17 PM 33.2828 -112.7000 89° East 382 440 16,000 -545 Level Albuquerque Center
Sat 11:28:18 PM 33.2847 -112.5833 89° East 381 438 14,900 -1,672 Descending Albuquerque Center
Sat 11:29:19 PM 33.2900 -112.4550 87° East 388 447 12,600 -1,918 Descending Albuquerque Center
Sat 11:30:20 PM 33.2953 -112.3139 87° East 351 404 11,000 -1,339 Descending Albuquerque Center
Sat 11:31:20 PM 33.3025 -112.2136 85° East 310 357 9,900 -893 Descending Albuquerque Center
Sat 11:32:21 PM 33.3092 -112.1233 85° East 278 320 9,200 -787 Descending Albuquerque Center
Sat 11:33:22 PM 33.3236 -112.0453 77° East 249 287 8,300 -1,736 Descending Albuquerque Center
Sat 11:34:22 PM 33.3358 -111.9603 80° East 270 311 5,700 -1,438 Descending Albuquerque Center
Sat 11:35:23 PM 33.3589 -111.8889 69° East 239 275 5,400 -492 Descending Albuquerque Center
Sat 11:36:24 PM 33.4083 -111.8797 North 181 208 4,700 -1,240 Descending Albuquerque Center
Sat 11:37:24 PM 33.4308 -111.9103 311° West 157 181 2,900 -1,388 Descending Albuquerque Center
Sat 11:38:25 PM 33.4317 -111.9528 271° West 130 150 1,900 -843 Descending Albuquerque Center
Sat 11:39:25 PM 33.4306 -111.9978 268° West 122 140 1,200 -700 Descending Albuquerque Center

Login

Don't have an account? Register now (free) for customized features, flight alerts, and more!